createdAt,value
2023-05-13T00:02:09.801Z,97983.67
2023-05-13T00:04:39.861Z,97986.59
2023-05-13T00:07:10.037Z,97987.85
2023-05-13T00:09:40.370Z,97988.41
2023-05-13T00:12:11.083Z,97990.62
2023-05-13T00:14:41.343Z,97990.27
2023-05-13T00:17:11.425Z,97987.09
2023-05-13T00:19:41.664Z,97984.88
2023-05-13T00:22:11.922Z,97977.59
2023-05-13T00:24:42.242Z,97975.21
2023-05-13T00:27:12.900Z,97978.02
2023-05-13T00:29:42.800Z,97976.60
2023-05-13T00:32:12.932Z,97978.10
2023-05-13T00:34:43.137Z,97975.30
2023-05-13T00:37:13.909Z,97977.11
2023-05-13T00:39:44.138Z,97978.71
2023-05-13T00:42:14.912Z,97978.63
2023-05-13T00:44:45.008Z,97981.32
2023-05-13T00:47:15.329Z,97980.16
2023-05-13T00:49:45.464Z,97979.98
2023-05-13T00:52:15.524Z,97976.63
2023-05-13T00:54:45.678Z,97982.55
2023-05-13T00:57:16.025Z,97988.81
2023-05-13T00:59:46.005Z,97991.26
2023-05-13T01:02:22.139Z,97992.75
2023-05-13T01:05:05.920Z,97997.48
2023-05-13T01:07:44.816Z,97994.26
2023-05-13T01:10:21.254Z,97991.23
2023-05-13T01:12:58.222Z,97994.39
2023-05-13T01:15:29.571Z,98000.29
2023-05-13T01:18:06.202Z,98004.80
2023-05-13T01:20:38.439Z,98003.48
2023-05-13T01:23:08.558Z,98009.71
2023-05-13T01:25:39.361Z,98009.89
2023-05-13T01:28:10.158Z,98007.70
2023-05-13T01:30:40.917Z,98012.23
2023-05-13T01:33:12.677Z,98009.56
2023-05-13T01:35:43.756Z,98010.59
2023-05-13T01:38:15.724Z,98010.90
2023-05-13T01:40:48.934Z,98006.91
2023-05-13T01:43:18.995Z,98009.52
2023-05-13T01:45:51.357Z,98012.86
2023-05-13T01:48:21.861Z,98014.55
2023-05-13T01:50:52.738Z,98014.63
2023-05-13T01:53:23.035Z,98015.63
2023-05-13T01:55:54.677Z,98015.70
2023-05-13T01:58:24.901Z,98016.52
2023-05-13T02:00:55.003Z,98016.59
2023-05-13T02:03:25.224Z,98016.66
2023-05-13T02:05:56.059Z,98019.60
2023-05-13T02:08:27.468Z,98020.83
2023-05-13T02:10:58.137Z,98017.89
2023-05-13T02:13:28.263Z,98025.58
2023-05-13T02:15:58.421Z,98021.61
2023-05-13T02:18:28.603Z,98026.02
2023-05-13T02:20:58.718Z,98027.64
2023-05-13T02:23:29.009Z,98027.57
2023-05-13T02:25:59.134Z,98026.81
2023-05-13T02:28:30.900Z,98020.88
2023-05-13T02:31:01.187Z,98020.55
2023-05-13T02:33:31.821Z,98022.69
2023-05-13T02:36:02.420Z,98026.27
2023-05-13T02:38:32.807Z,98025.88
2023-05-13T02:41:04.243Z,98029.23
2023-05-13T02:43:34.622Z,98028.12
2023-05-13T02:46:06.072Z,98027.96
2023-05-13T02:48:36.405Z,98031.10
2023-05-13T02:51:06.799Z,98030.59
2023-05-13T02:53:37.024Z,98033.94
2023-05-13T02:56:08.529Z,98033.44
2023-05-13T02:58:39.809Z,98039.98
2023-05-13T03:01:09.990Z,98038.48
2023-05-13T03:03:40.428Z,98041.19
2023-05-13T03:06:11.471Z,98048.31
2023-05-13T03:08:41.564Z,98048.79
2023-05-13T03:11:11.492Z,98052.69
2023-05-13T03:13:43.049Z,98055.71
2023-05-13T03:16:13.206Z,98055.60
2023-05-13T03:18:43.513Z,98054.15
2023-05-13T03:21:13.616Z,98053.52
2023-05-13T03:23:45.102Z,98055.77
2023-05-13T03:26:15.128Z,98056.86
2023-05-13T03:28:45.300Z,98058.24
2023-05-13T03:31:15.961Z,98060.34
2023-05-13T03:33:46.847Z,98061.16
2023-05-13T03:36:16.876Z,98061.80
2023-05-13T03:38:47.226Z,98059.63
2023-05-13T03:41:17.780Z,98064.29
2023-05-13T03:43:48.785Z,98066.55
2023-05-13T03:46:19.596Z,98062.91
2023-05-13T03:48:50.978Z,98067.59
2023-05-13T03:51:21.306Z,98062.52
2023-05-13T03:53:51.449Z,98068.23
2023-05-13T03:56:21.926Z,98074.27
2023-05-13T03:58:52.088Z,98076.95
2023-05-13T04:01:22.762Z,98077.22
2023-05-13T04:03:53.001Z,98081.45
2023-05-13T04:06:23.201Z,98081.92
2023-05-13T04:08:53.761Z,98088.22
2023-05-13T04:11:23.978Z,98088.36
2023-05-13T04:13:54.432Z,98090.86
2023-05-13T04:16:25.351Z,98091.76
2023-05-13T04:18:55.538Z,98092.02
2023-05-13T04:21:25.667Z,98093.02
2023-05-13T04:23:55.840Z,98095.00
2023-05-13T04:26:25.882Z,98093.86
2023-05-13T04:28:55.968Z,98095.69
2023-05-13T04:31:26.439Z,98095.72
2023-05-13T04:33:57.197Z,98101.16
2023-05-13T04:36:29.728Z,98100.77
2023-05-13T04:39:00.242Z,98105.77
2023-05-13T04:41:31.314Z,98108.91
2023-05-13T04:44:02.264Z,98107.22
2023-05-13T04:46:33.077Z,98108.73
2023-05-13T04:49:03.099Z,98116.96
2023-05-13T04:51:33.323Z,98117.70
2023-05-13T04:54:05.472Z,98120.53
2023-05-13T04:56:36.862Z,98123.15
2023-05-13T04:59:06.949Z,98119.67
2023-05-13T05:01:37.273Z,98122.57
2023-05-13T05:04:08.004Z,98125.46
2023-05-13T05:06:38.901Z,98129.02
2023-05-13T05:09:09.193Z,98133.63
2023-05-13T05:11:39.644Z,98133.63
2023-05-13T05:14:10.479Z,98135.02
2023-05-13T05:16:40.966Z,98131.88
2023-05-13T05:19:12.222Z,98135.21
2023-05-13T05:21:42.868Z,98135.13
2023-05-13T05:24:13.682Z,98136.62
2023-05-13T05:26:44.062Z,98140.08
2023-05-13T05:29:14.883Z,98135.20
2023-05-13T05:31:47.241Z,98135.78
2023-05-13T05:34:17.925Z,98131.65
2023-05-13T05:36:48.322Z,98132.27
2023-05-13T05:39:19.766Z,98130.99
2023-05-13T05:41:49.982Z,98131.48
2023-05-13T05:44:21.085Z,98130.11
2023-05-13T05:46:52.381Z,98128.06
2023-05-13T05:49:22.426Z,98131.08
2023-05-13T05:51:53.384Z,98130.80
2023-05-13T05:54:24.784Z,98130.70
2023-05-13T05:56:54.944Z,98130.30
2023-05-13T05:59:25.446Z,98129.13
2023-05-13T06:01:55.487Z,98132.21
2023-05-13T06:04:25.637Z,98143.25
2023-05-13T06:06:56.070Z,98137.92
2023-05-13T06:09:26.284Z,98142.57
2023-05-13T06:11:56.479Z,98142.55
2023-05-13T06:14:26.742Z,98142.09
2023-05-13T06:16:56.885Z,98145.41
2023-05-13T06:19:27.841Z,98144.52
2023-05-13T06:21:57.985Z,98148.98
2023-05-13T06:24:28.383Z,98151.01
2023-05-13T06:26:58.520Z,98152.00
2023-05-13T06:29:28.785Z,98152.20
2023-05-13T06:31:59.061Z,98155.70
2023-05-13T06:34:29.020Z,98155.23
2023-05-13T06:36:59.076Z,98154.88
2023-05-13T06:39:29.795Z,98155.54
2023-05-13T06:42:00.549Z,98160.77
2023-05-13T06:44:35.001Z,98161.00
2023-05-13T06:47:09.963Z,98159.27
2023-05-13T06:49:41.028Z,98161.29
2023-05-13T06:52:11.812Z,98162.06
2023-05-13T06:54:42.106Z,98162.67
2023-05-13T06:57:12.377Z,98160.56
2023-05-13T06:59:42.430Z,98155.83
2023-05-13T07:02:12.601Z,98155.80
2023-05-13T07:04:43.079Z,98157.09
2023-05-13T07:07:13.545Z,98156.77
2023-05-13T07:09:43.480Z,98154.58
2023-05-13T07:12:14.106Z,98156.09
2023-05-13T07:14:45.066Z,98156.81
2023-05-13T07:17:15.270Z,98153.14
2023-05-13T07:19:45.277Z,98159.45
2023-05-13T07:22:15.395Z,98153.81
2023-05-13T07:24:45.750Z,98159.69
2023-05-13T07:27:15.759Z,98161.84
2023-05-13T07:29:45.915Z,98159.13
2023-05-13T07:32:16.379Z,98153.70
2023-05-13T07:34:46.374Z,98154.83
2023-05-13T07:37:17.023Z,98151.72
2023-05-13T07:39:48.287Z,98149.82
2023-05-13T07:42:19.057Z,98151.36
2023-05-13T07:44:49.197Z,98153.81
2023-05-13T07:47:19.748Z,98155.93
2023-05-13T07:49:50.716Z,98162.36
2023-05-13T07:52:21.443Z,98155.39
2023-05-13T07:54:51.558Z,98157.61
2023-05-13T07:57:21.640Z,98156.05
2023-05-13T07:59:52.443Z,98160.70
2023-05-13T08:02:22.493Z,98163.19
2023-05-13T08:04:52.782Z,98161.61
2023-05-13T08:07:22.942Z,98158.59
2023-05-13T08:09:53.251Z,98158.29
2023-05-13T08:12:24.103Z,98157.89
2023-05-13T08:14:54.340Z,98160.47
2023-05-13T08:17:24.425Z,98156.30
2023-05-13T08:19:54.797Z,98150.58
2023-05-13T08:22:24.894Z,98157.35
2023-05-13T08:24:55.117Z,98151.67
2023-05-13T08:27:25.255Z,98156.96
2023-05-13T08:29:55.292Z,98150.73
2023-05-13T08:32:25.220Z,98149.62
2023-05-13T08:34:55.908Z,98148.02
2023-05-13T08:37:26.078Z,98145.45
2023-05-13T08:39:59.600Z,98152.57
2023-05-13T08:42:33.114Z,98144.04
2023-05-13T08:45:08.158Z,98144.35
2023-05-13T08:47:49.740Z,98146.39
2023-05-13T08:50:23.722Z,98144.60
2023-05-13T08:52:55.156Z,98141.53
2023-05-13T08:55:25.318Z,98140.10
2023-05-13T08:57:55.381Z,98138.81
2023-05-13T09:00:26.067Z,98135.83
2023-05-13T09:02:56.214Z,98129.40
2023-05-13T09:05:27.571Z,98126.19
2023-05-13T09:07:57.840Z,98126.99
2023-05-13T09:10:28.743Z,98124.09
2023-05-13T09:13:00.306Z,98122.83
2023-05-13T09:15:35.034Z,98120.59
2023-05-13T09:18:07.387Z,98117.83
2023-05-13T09:20:39.226Z,98108.83
2023-05-13T09:23:11.308Z,98106.91
2023-05-13T09:25:44.523Z,98111.20
2023-05-13T09:28:16.942Z,98100.16
2023-05-13T09:30:57.040Z,98105.25
2023-05-13T09:33:32.676Z,98095.00
2023-05-13T09:36:08.042Z,98094.63
2023-05-13T09:38:38.819Z,98091.24
2023-05-13T09:41:11.058Z,98098.53
2023-05-13T09:43:41.259Z,98089.92
2023-05-13T09:46:12.477Z,98089.59
2023-05-13T09:48:45.082Z,98085.00
2023-05-13T09:51:16.963Z,98088.17
2023-05-13T09:53:48.886Z,98083.44
2023-05-13T09:56:23.639Z,98081.84
2023-05-13T09:58:57.433Z,98081.52
2023-05-13T10:01:29.191Z,98086.84
2023-05-13T10:03:59.992Z,98083.35
2023-05-13T10:06:32.005Z,98076.89
2023-05-13T10:09:03.639Z,98077.08
2023-05-13T10:11:40.494Z,98076.47
2023-05-13T10:14:11.327Z,98074.13
2023-05-13T10:16:43.422Z,98068.98
2023-05-13T10:19:14.494Z,98069.17
2023-05-13T10:21:45.300Z,98070.23
2023-05-13T10:24:15.526Z,98062.38
2023-05-13T10:26:46.583Z,98075.93
2023-05-13T10:29:17.322Z,98069.52
2023-05-13T10:31:49.350Z,98075.76
2023-05-13T10:34:19.557Z,98067.58
2023-05-13T10:37:03.567Z,98072.70
2023-05-13T10:40:20.441Z,98086.48
2023-05-13T10:43:00.041Z,98076.30
2023-05-13T10:45:32.242Z,98069.23
2023-05-13T10:48:07.571Z,98069.80
2023-05-13T10:50:39.846Z,98069.81
2023-05-13T10:53:24.236Z,98074.34
2023-05-13T10:55:59.630Z,98072.50
2023-05-13T10:58:34.516Z,98071.71
2023-05-13T11:01:19.285Z,98067.84
2023-05-13T11:03:56.397Z,98067.02
2023-05-13T11:06:34.162Z,98066.49
2023-05-13T11:09:07.692Z,98062.81
2023-05-13T11:11:38.341Z,98069.84
2023-05-13T11:14:17.697Z,98068.45
2023-05-13T11:16:49.279Z,98064.24
2023-05-13T11:19:22.995Z,98073.45
2023-05-13T11:21:55.155Z,98077.34
2023-05-13T11:24:26.828Z,98082.00
2023-05-13T11:26:58.645Z,98073.33
2023-05-13T11:29:33.939Z,98078.86
2023-05-13T11:32:05.643Z,98072.23
2023-05-13T11:34:36.640Z,98075.70
2023-05-13T11:37:11.104Z,98077.39
2023-05-13T11:39:42.019Z,98073.88
2023-05-13T11:42:12.870Z,98071.50
2023-05-13T11:44:49.503Z,98069.94
2023-05-13T11:47:28.326Z,98073.95
2023-05-13T11:49:59.297Z,98083.44
2023-05-13T11:52:29.219Z,98080.46
2023-05-13T11:54:59.821Z,98078.26
2023-05-13T11:57:32.468Z,98081.06
2023-05-13T12:00:08.507Z,98079.91
2023-05-13T12:02:40.710Z,98080.41
2023-05-13T12:05:12.277Z,98078.42
2023-05-13T12:07:43.527Z,98083.86
2023-05-13T12:10:14.060Z,98077.13
2023-05-13T12:12:45.998Z,98081.86
2023-05-13T12:15:21.519Z,98093.08
2023-05-13T12:17:52.801Z,98084.64
2023-05-13T12:20:24.602Z,98086.84
2023-05-13T12:23:00.416Z,98083.86
2023-05-13T12:25:41.822Z,98074.13
2023-05-13T12:28:17.674Z,98081.14
2023-05-13T12:30:53.101Z,98085.62
2023-05-13T12:33:25.387Z,98086.48
2023-05-13T12:36:14.767Z,98084.26
2023-05-13T12:38:59.808Z,98090.83
2023-05-13T12:41:32.149Z,98085.98
2023-05-13T12:44:03.584Z,98087.52
2023-05-13T12:46:34.814Z,98090.43
2023-05-13T12:49:06.287Z,98090.08
2023-05-13T12:51:37.301Z,98089.30
2023-05-13T12:54:07.855Z,98086.86
2023-05-13T12:56:39.821Z,98085.74
2023-05-13T12:59:10.021Z,98082.33
2023-05-13T13:01:41.878Z,98084.67
2023-05-13T13:04:12.165Z,98087.95
2023-05-13T13:06:42.970Z,98085.70
2023-05-13T13:09:13.185Z,98085.85
2023-05-13T13:11:43.410Z,98083.09
2023-05-13T13:14:13.846Z,98080.31
2023-05-13T13:16:44.251Z,98079.95
2023-05-13T13:19:14.396Z,98078.91
2023-05-13T13:21:44.645Z,98080.21
2023-05-13T13:24:15.157Z,98078.72
2023-05-13T13:26:45.568Z,98080.55
2023-05-13T13:29:15.908Z,98080.55
2023-05-13T13:31:46.561Z,98086.39
2023-05-13T13:34:18.124Z,98090.15
2023-05-13T13:36:48.536Z,98088.36
2023-05-13T13:39:18.918Z,98089.71
2023-05-13T13:41:48.821Z,98093.95
2023-05-13T13:44:19.053Z,98086.98
2023-05-13T13:46:49.505Z,98085.18
2023-05-13T13:49:23.877Z,98081.52
2023-05-13T13:51:54.886Z,98085.50
2023-05-13T13:54:25.097Z,98080.52
2023-05-13T13:56:55.168Z,98075.98
2023-05-13T13:59:25.297Z,98078.35
2023-05-13T14:01:56.422Z,98085.02
2023-05-13T14:04:29.961Z,98085.95
2023-05-13T14:07:00.116Z,98086.57
2023-05-13T14:09:31.098Z,98082.91
2023-05-13T14:12:01.198Z,98087.70
2023-05-13T14:14:33.697Z,98085.95
2023-05-13T14:17:04.322Z,98089.80
2023-05-13T14:19:34.941Z,98084.66
2023-05-13T14:22:06.548Z,98082.98
2023-05-13T14:24:37.062Z,98088.59
2023-05-13T14:27:07.467Z,98089.86
2023-05-13T14:29:37.463Z,98089.36
2023-05-13T14:32:08.624Z,98091.85
2023-05-13T14:34:38.621Z,98093.97
2023-05-13T14:37:08.652Z,98088.81
2023-05-13T14:39:38.625Z,98091.69
2023-05-13T14:42:11.345Z,98093.28
2023-05-13T14:44:41.705Z,98096.64
2023-05-13T14:47:12.259Z,98093.19
2023-05-13T14:49:42.410Z,98091.91
2023-05-13T14:52:12.809Z,98088.71
2023-05-13T14:54:42.759Z,98090.03
2023-05-13T14:57:12.937Z,98089.81
2023-05-13T14:59:43.023Z,98093.42
2023-05-13T15:02:14.028Z,98097.33
2023-05-13T15:04:44.336Z,98090.29
2023-05-13T15:07:14.616Z,98092.10
2023-05-13T15:09:44.701Z,98090.75
2023-05-13T15:12:14.884Z,98090.44
2023-05-13T15:14:51.702Z,98088.08
2023-05-13T15:17:22.281Z,98091.05
2023-05-13T15:19:52.535Z,98081.86
2023-05-13T15:22:23.197Z,98086.95
2023-05-13T15:24:53.276Z,98085.65
2023-05-13T15:27:23.484Z,98091.73
2023-05-13T15:29:53.759Z,98085.55
2023-05-13T15:32:23.851Z,98088.55
2023-05-13T15:34:53.970Z,98085.17
2023-05-13T15:37:24.080Z,98078.80
2023-05-13T15:39:54.243Z,98084.61
2023-05-13T15:42:24.481Z,98078.51
2023-05-13T15:44:54.777Z,98078.20
2023-05-13T15:47:25.319Z,98075.23
2023-05-13T15:49:55.578Z,98075.21
2023-05-13T15:52:25.925Z,98074.68
2023-05-13T15:54:57.768Z,98075.98
2023-05-13T15:57:28.080Z,98074.53
2023-05-13T15:59:58.296Z,98072.27
2023-05-13T16:02:35.708Z,98079.04
2023-05-13T16:05:06.974Z,98071.87
2023-05-13T16:07:37.324Z,98070.06
2023-05-13T16:10:08.715Z,98070.68
2023-05-13T16:12:39.474Z,98071.59
2023-05-13T16:15:11.594Z,98073.52
2023-05-13T16:17:42.005Z,98066.09
2023-05-13T16:20:13.621Z,98063.23
2023-05-13T16:22:44.067Z,98061.52
2023-05-13T16:25:14.441Z,98060.17
2023-05-13T16:27:44.626Z,98063.33
2023-05-13T16:30:15.516Z,98057.56
2023-05-13T16:32:48.604Z,98059.77
2023-05-13T16:35:19.406Z,98060.54
2023-05-13T16:37:49.878Z,98059.84
2023-05-13T16:40:21.172Z,98057.09
2023-05-13T16:42:52.360Z,98058.22
2023-05-13T16:45:23.172Z,98057.88
2023-05-13T16:47:54.033Z,98058.27
2023-05-13T16:50:25.023Z,98059.48
2023-05-13T16:52:56.659Z,98059.78
2023-05-13T16:55:26.876Z,98054.52
2023-05-13T16:57:57.019Z,98052.98
2023-05-13T17:00:27.419Z,98049.72
2023-05-13T17:02:59.928Z,98049.75
2023-05-13T17:05:31.599Z,98047.05
2023-05-13T17:08:01.811Z,98048.33
2023-05-13T17:10:32.198Z,98051.94
2023-05-13T17:13:02.501Z,98053.12
2023-05-13T17:15:32.946Z,98051.21
2023-05-13T17:18:03.397Z,98051.77
2023-05-13T17:20:33.462Z,98049.79
2023-05-13T17:23:03.827Z,98049.14
2023-05-13T17:25:33.799Z,98052.68
2023-05-13T17:28:07.719Z,98050.20
2023-05-13T17:30:37.867Z,98051.17
2023-05-13T17:33:08.198Z,98045.23
2023-05-13T17:35:38.351Z,98045.84
2023-05-13T17:38:08.465Z,98042.07
2023-05-13T17:40:38.834Z,98040.70
2023-05-13T17:43:08.987Z,98041.91
2023-05-13T17:45:39.423Z,98036.20
2023-05-13T17:48:10.084Z,98036.30
2023-05-13T17:50:40.364Z,98036.46
2023-05-13T17:53:10.760Z,98035.52
2023-05-13T17:55:41.069Z,98036.40
2023-05-13T17:58:12.188Z,98038.23
2023-05-13T18:00:44.711Z,98042.10
2023-05-13T18:03:14.781Z,98042.38
2023-05-13T18:05:45.091Z,98043.52
2023-05-13T18:08:15.739Z,98045.04
2023-05-13T18:10:47.197Z,98045.95
2023-05-13T18:13:17.242Z,98047.44
2023-05-13T18:15:47.470Z,98050.22
2023-05-13T18:18:18.319Z,98053.53
2023-05-13T18:20:48.519Z,98055.39
2023-05-13T18:23:18.835Z,98060.89
2023-05-13T18:25:55.855Z,98061.85
2023-05-13T18:28:27.101Z,98066.20
2023-05-13T18:30:58.094Z,98068.21
2023-05-13T18:33:28.781Z,98074.13
2023-05-13T18:35:59.137Z,98076.19
2023-05-13T18:38:29.707Z,98075.36
2023-05-13T18:41:07.379Z,98082.13
2023-05-13T18:43:40.908Z,98081.27
2023-05-13T18:46:11.462Z,98084.27
2023-05-13T18:48:41.838Z,98087.27
2023-05-13T18:51:12.061Z,98088.34
2023-05-13T18:53:44.904Z,98089.84
2023-05-13T18:56:15.904Z,98091.53
2023-05-13T18:58:52.160Z,98094.92
2023-05-13T19:01:22.407Z,98097.09
2023-05-13T19:03:53.016Z,98097.95
2023-05-13T19:06:23.239Z,98096.11
2023-05-13T19:08:53.374Z,98100.28
2023-05-13T19:11:23.697Z,98100.66
2023-05-13T19:13:54.276Z,98099.69
2023-05-13T19:16:25.042Z,98104.06
2023-05-13T19:18:55.257Z,98103.33
2023-05-13T19:21:25.519Z,98106.70
2023-05-13T19:23:55.757Z,98108.78
2023-05-13T19:26:26.378Z,98107.65
2023-05-13T19:28:57.060Z,98110.45
2023-05-13T19:31:27.442Z,98108.20
2023-05-13T19:33:58.232Z,98108.02
2023-05-13T19:36:28.668Z,98108.22
2023-05-13T19:38:59.220Z,98109.92
2023-05-13T19:41:40.299Z,98113.55
2023-05-13T19:44:12.663Z,98112.16
2023-05-13T19:46:46.834Z,98115.35
2023-05-13T19:49:17.400Z,98119.35
2023-05-13T19:51:47.358Z,98116.25
2023-05-13T19:54:17.660Z,98113.48
2023-05-13T19:56:50.735Z,98109.78
2023-05-13T19:59:23.585Z,98109.14
2023-05-13T20:01:56.120Z,98106.06
2023-05-13T20:04:26.677Z,98107.05
2023-05-13T20:06:56.840Z,98106.80
2023-05-13T20:09:27.262Z,98105.84
2023-05-13T20:11:58.184Z,98104.52
2023-05-13T20:14:44.189Z,98105.28
2023-05-13T20:17:17.123Z,98102.89
2023-05-13T20:19:51.360Z,98104.33
2023-05-13T20:22:27.252Z,98108.18
2023-05-13T20:24:57.883Z,98103.09
2023-05-13T20:27:28.286Z,98105.86
2023-05-13T20:29:59.766Z,98100.52
2023-05-13T20:32:29.939Z,98100.13
2023-05-13T20:35:00.121Z,98100.52
2023-05-13T20:37:30.600Z,98096.08
2023-05-13T20:40:00.644Z,98094.27
2023-05-13T20:42:30.862Z,98097.35
2023-05-13T20:45:01.104Z,98093.59
2023-05-13T20:47:31.426Z,98095.02
2023-05-13T20:50:01.790Z,98091.88
2023-05-13T20:52:32.302Z,98092.93
2023-05-13T20:55:03.058Z,98092.52
2023-05-13T20:57:33.380Z,98089.66
2023-05-13T21:00:04.821Z,98091.55
2023-05-13T21:02:35.258Z,98092.88
2023-05-13T21:05:06.122Z,98092.45
2023-05-13T21:07:36.942Z,98091.92
2023-05-13T21:10:09.047Z,98090.41
2023-05-13T21:12:39.190Z,98089.14
2023-05-13T21:15:13.085Z,98087.30
2023-05-13T21:17:44.708Z,98086.42
2023-05-13T21:20:16.030Z,98089.52
2023-05-13T21:22:46.190Z,98093.16
2023-05-13T21:25:16.781Z,98091.30
2023-05-13T21:27:46.838Z,98093.15
2023-05-13T21:30:17.184Z,98092.52
2023-05-13T21:32:47.130Z,98091.68
2023-05-13T21:35:18.058Z,98085.92
2023-05-13T21:37:48.784Z,98085.83
2023-05-13T21:40:20.835Z,98087.55
2023-05-13T21:42:50.954Z,98086.23
2023-05-13T21:45:22.274Z,98084.11
2023-05-13T21:47:52.247Z,98083.79
2023-05-13T21:50:23.260Z,98079.50
2023-05-13T21:52:53.491Z,98078.11
2023-05-13T21:55:23.905Z,98074.02
2023-05-13T21:57:54.044Z,98073.90
2023-05-13T22:00:24.728Z,98071.77
2023-05-13T22:02:56.849Z,98068.10
2023-05-13T22:05:27.156Z,98071.66
2023-05-13T22:07:57.048Z,98072.24
2023-05-13T22:10:27.175Z,98076.41
2023-05-13T22:12:57.091Z,98073.39
2023-05-13T22:15:27.299Z,98069.55
2023-05-13T22:17:57.782Z,98069.95
2023-05-13T22:20:27.936Z,98071.11
2023-05-13T22:22:58.015Z,98075.16
2023-05-13T22:25:28.132Z,98075.16
2023-05-13T22:27:58.257Z,98079.95
2023-05-13T22:30:28.504Z,98079.98
2023-05-13T22:32:58.420Z,98081.12
2023-05-13T22:35:29.160Z,98077.39
2023-05-13T22:37:59.101Z,98076.79
2023-05-13T22:40:29.400Z,98079.02
2023-05-13T22:42:59.379Z,98079.77
2023-05-13T22:45:29.524Z,98079.86
2023-05-13T22:47:59.527Z,98081.06
2023-05-13T22:50:31.267Z,98079.64
2023-05-13T22:53:01.962Z,98079.52
2023-05-13T22:55:31.997Z,98076.98
2023-05-13T22:58:02.161Z,98076.69
2023-05-13T23:00:32.748Z,98076.05
2023-05-13T23:03:03.004Z,98078.11
2023-05-13T23:05:33.020Z,98076.73
2023-05-13T23:08:03.117Z,98070.06
2023-05-13T23:10:33.789Z,98065.24
2023-05-13T23:13:05.397Z,98062.52
2023-05-13T23:15:38.143Z,98061.38
2023-05-13T23:18:08.703Z,98063.52
2023-05-13T23:20:38.991Z,98062.69
2023-05-13T23:23:09.057Z,98062.02
2023-05-13T23:25:39.338Z,98058.39
2023-05-13T23:28:09.296Z,98055.36
2023-05-13T23:30:39.377Z,98052.08
2023-05-13T23:33:09.659Z,98050.70
2023-05-13T23:35:39.620Z,98052.41
2023-05-13T23:38:09.797Z,98052.75
2023-05-13T23:40:39.814Z,98056.41
2023-05-13T23:43:09.901Z,98053.49
2023-05-13T23:45:40.132Z,98049.78
2023-05-13T23:48:10.957Z,98045.96
2023-05-13T23:50:42.698Z,98045.72
2023-05-13T23:53:12.961Z,98043.83
2023-05-13T23:55:43.186Z,98040.76
2023-05-13T23:58:13.218Z,98037.26
